Heloise — 3FLA7 — position and weather

sailwx.info

Track history (hours):
 
Tides and Currents Weather Stations Pressure Air Temp Water Temp Dewpoint Dewpoint Depression Visibility Wind Speed Wind Dir Waves Ship Positions

Heloise

Last reported at 2015-Jun-20 02:32 UTC. Time now 2015-Jul-03 17:22 UTC.
Position N 37°08' E 016°07'.
Warning: this ship's position is 13 days out of date.

Length 186 m; draft 9.1 m.

Type: Cargo ship. MMSI: 352302000.

Date/timePositionNaut miles runAvg speedWind from/ knotsBaromVisibWave heightAir tempDewpointWater temp
2015-Jun-20 02:32N 37°08' E 016°07'8412.0
2015-Jun-19 19:33N 36°27' E 014°36'1312.8
2015-Jun-19 18:33N 36°31' E 014°21'1312.8
2015-Jun-19 17:33N 36°37' E 014°07'5 5.2
2015-Jun-19 16:33N 36°34' E 014°12'1312.6
2015-Jun-19 15:31N 36°35' E 013°56'1313.7
2015-Jun-19 14:33N 36°40' E 013°41'60812.7
2015-Jun-17 14:33N 36°44' E 001°02'2713.4
2015-Jun-17 12:32N 36°41' E 000°29'1313.3
2015-Jun-17 11:33N 36°39' E 000°13'1313.0
2015-Jun-17 10:34N 36°36' W 000°03'1312.9
2015-Jun-17 09:33N 36°34' W 000°19'1313.4
2015-Jun-17 08:33N 36°33' W 000°35'1313.1
2015-Jun-17 07:33N 36°31' W 000°52'1413.7
2015-Jun-17 06:32N 36°29' W 001°09'1313.0
2015-Jun-17 05:33N 36°26' W 001°24'1313.0
2015-Jun-17 04:33N 36°25' W 001°40'1412.9
2015-Jun-17 03:28N 36°23' W 001°58'1213.0
2015-Jun-17 02:33N 36°22' W 002°12'1413.7
2015-Jun-17 01:33N 36°20' W 002°29'1313.4
2015-Jun-17 00:33N 36°18' W 002°46'1413.3
2015-Jun-16 23:32N 36°15' W 003°02'11314.1
2015-Jun-16 15:33N 35°59' W 005°20'12313.5
2015-Jun-16 06:28N 35°54' W 007°52'6412.9
2015-Jun-16 01:29N 35°54' W 009°11'  
2015-Jun-13 16:33N 35°60' W 024°22'1312.6
2015-Jun-13 15:33N 35°60' W 024°38'1312.8
2015-Jun-13 14:33N 35°59' W 024°53'1312.7
2015-Jun-13 13:33N 36°01' W 025°09'1312.8
2015-Jun-13 12:33N 36°05' W 025°24'1313.2
2015-Jun-13 11:33N 36°09' W 025°40'1313.2
2015-Jun-13 10:33N 36°13' W 025°55'1313.1
2015-Jun-13 09:32N 36°17' W 026°11'17013.0
2015-Jun-12 20:28N 37°06' W 029°34'  
Track history (hours):
 
Tides and Currents Weather Stations Pressure Air Temp Water Temp Dewpoint Dewpoint Depression Visibility Wind Speed Wind Dir Waves Ship Positions

Heloise

Last reported at 2015-Jun-20 02:32 UTC. Time now 2015-Jul-03 17:22 UTC.
Position N 37°08' E 016°07'.
Warning: this ship's position is 13 days out of date.

Length 186 m; draft 9.1 m.

Type: Cargo ship. MMSI: 352302000.

Date/timePositionNaut miles runAvg speedWind from/ knotsBaromVisibWave heightAir tempDewpointWater temp
2015-Jun-20 02:32N 37°08' E 016°07'8412.0
2015-Jun-19 19:33N 36°27' E 014°36'1312.8
2015-Jun-19 18:33N 36°31' E 014°21'1312.8
2015-Jun-19 17:33N 36°37' E 014°07'5 5.2
2015-Jun-19 16:33N 36°34' E 014°12'1312.6
2015-Jun-19 15:31N 36°35' E 013°56'1313.7
2015-Jun-19 14:33N 36°40' E 013°41'60812.7
2015-Jun-17 14:33N 36°44' E 001°02'2713.4
2015-Jun-17 12:32N 36°41' E 000°29'1313.3
2015-Jun-17 11:33N 36°39' E 000°13'1313.0
2015-Jun-17 10:34N 36°36' W 000°03'1312.9
2015-Jun-17 09:33N 36°34' W 000°19'1313.4
2015-Jun-17 08:33N 36°33' W 000°35'1313.1
2015-Jun-17 07:33N 36°31' W 000°52'1413.7
2015-Jun-17 06:32N 36°29' W 001°09'1313.0
2015-Jun-17 05:33N 36°26' W 001°24'1313.0
2015-Jun-17 04:33N 36°25' W 001°40'1412.9
2015-Jun-17 03:28N 36°23' W 001°58'1213.0
2015-Jun-17 02:33N 36°22' W 002°12'1413.7
2015-Jun-17 01:33N 36°20' W 002°29'1313.4
2015-Jun-17 00:33N 36°18' W 002°46'1413.3
2015-Jun-16 23:32N 36°15' W 003°02'11314.1
2015-Jun-16 15:33N 35°59' W 005°20'12313.5
2015-Jun-16 06:28N 35°54' W 007°52'6412.9
2015-Jun-16 01:29N 35°54' W 009°11'  
2015-Jun-13 16:33N 35°60' W 024°22'1312.6
2015-Jun-13 15:33N 35°60' W 024°38'1312.8
2015-Jun-13 14:33N 35°59' W 024°53'1312.7
2015-Jun-13 13:33N 36°01' W 025°09'1312.8
2015-Jun-13 12:33N 36°05' W 025°24'1313.2
2015-Jun-13 11:33N 36°09' W 025°40'1313.2
2015-Jun-13 10:33N 36°13' W 025°55'1313.1
2015-Jun-13 09:32N 36°17' W 026°11'17013.0
2015-Jun-12 20:28N 37°06' W 029°34'  

Dump ship's entire track history